Time;durP1;ratioP1;P1;durP2;ratioP2;P2;SDS_P1;SDS_P2;PMS_P1;PMS_P2;Temp;Humidity;BMP_temperature;BMP_pressure;BME280_temperature;BME280_humidity;BME280_pressure;Samples;Min_cycle;Max_cycle;Signal;HPM_P1;HPM_P2
2022/10/25 00:01:29;;;;;;;5.50;1.55;;;;;;;24.45;43.76;101146.13;5014501;28;20022;-57
2022/10/25 00:03:58;;;;;;;6.65;1.67;;;;;;;24.45;43.84;101142.66;5014119;28;20054;-56
2022/10/25 00:06:27;;;;;;;5.05;1.17;;;;;;;24.43;43.77;101138.25;5014255;28;20034;-57
2022/10/25 00:08:55;;;;;;;6.20;1.33;;;;;;;24.42;43.64;101140.84;5014083;28;20072;-57
2022/10/25 00:11:26;;;;;;;3.97;1.13;;;;;;;24.41;43.63;101139.97;5013938;28;20497;-56
2022/10/25 00:13:57;;;;;;;5.55;1.70;;;;;;;24.45;43.89;101145.28;5014035;28;20493;-57
2022/10/25 00:16:28;;;;;;;5.10;1.58;;;;;;;24.39;44.05;101136.44;5014063;28;20040;-57
2022/10/25 00:18:56;;;;;;;4.38;1.63;;;;;;;24.39;43.97;101135.59;4996461;28;20493;-57
2022/10/25 00:21:25;;;;;;;3.53;1.25;;;;;;;24.38;44.01;101133.81;5013760;28;20060;-57
2022/10/25 00:23:54;;;;;;;5.88;1.50;;;;;;;24.41;43.68;101139.97;5013876;28;20053;-57
2022/10/25 00:26:22;;;;;;;4.40;1.30;;;;;;;24.39;43.85;101139.06;5013558;28;20121;-52
2022/10/25 00:28:54;;;;;;;5.03;1.40;;;;;;;24.35;44.01;101142.50;5013861;28;20522;-56
2022/10/25 00:31:23;;;;;;;5.15;1.42;;;;;;;24.34;43.96;101143.34;4996200;28;20545;-58
2022/10/25 00:33:53;;;;;;;5.50;1.65;;;;;;;24.38;43.98;101132.06;5013645;28;20030;-56
2022/10/25 00:36:24;;;;;;;5.75;1.52;;;;;;;24.38;43.81;101131.19;5013862;28;20029;-57
2022/10/25 00:38:53;;;;;;;3.53;1.00;;;;;;;24.38;44.08;101133.81;4996315;28;20450;-56
2022/10/25 00:41:23;;;;;;;5.45;1.25;;;;;;;24.34;43.91;101132.00;5013381;28;20053;-56
2022/10/25 00:43:54;;;;;;;4.15;1.23;;;;;;;24.37;43.85;101130.31;5013326;28;20057;-58
2022/10/25 00:46:27;;;;;;;5.40;1.70;;;;;;;24.32;44.26;101129.38;5013848;28;20091;-57
2022/10/25 00:49:14;;;;;;;4.63;1.58;;;;;;;24.34;43.87;101127.63;5013444;28;20049;-58
2022/10/25 00:51:52;;;;;;;6.43;1.52;;;;;;;24.36;43.85;101125.03;5013230;28;20033;-58
2022/10/25 00:54:26;;;;;;;6.35;1.20;;;;;;;24.35;43.65;101124.16;4996024;28;20034;-55
2022/10/25 00:56:56;;;;;;;4.10;1.00;;;;;;;24.35;43.83;101123.28;5013670;28;20026;-57
2022/10/25 00:59:27;;;;;;;6.25;1.73;;;;;;;24.36;43.90;101117.19;4995312;28;20034;-58
2022/10/25 01:01:56;;;;;;;3.95;1.23;;;;;;;24.36;43.96;101115.44;5013753;28;20040;-56
2022/10/25 01:04:28;;;;;;;4.60;1.23;;;;;;;24.35;43.98;101111.03;4995849;28;20045;-58
2022/10/25 01:06:57;;;;;;;4.97;1.85;;;;;;;24.35;43.86;101110.19;5013281;28;20117;-56
2022/10/25 01:09:28;;;;;;;4.15;1.20;;;;;;;24.35;43.98;101115.41;5013051;28;20033;-56
2022/10/25 01:11:57;;;;;;;2.55;1.13;;;;;;;24.31;44.09;101106.63;4996041;28;20022;-58
2022/10/25 01:14:25;;;;;;;4.40;1.27;;;;;;;24.30;44.08;101099.63;5012770;28;20168;-56
2022/10/25 01:17:14;;;;;;;4.63;1.40;;;;;;;24.22;44.25;101107.38;5013357;28;20096;-58
2022/10/25 01:20:05;;;;;;;2.63;0.98;;;;;;;24.23;43.98;101108.25;4995439;28;20069;-57
2022/10/25 01:22:42;;;;;;;4.75;1.40;;;;;;;24.28;44.11;101101.34;5003325;28;20077;-58
2022/10/25 01:25:38;;;;;;;5.78;1.40;;;;;;;24.24;43.91;101100.41;4979718;28;20471;-58
2022/10/25 01:28:33;;;;;;;3.22;1.35;;;;;;;24.21;44.44;101091.63;5006242;28;20394;-57
2022/10/25 01:31:07;;;;;;;7.53;1.20;;;;;;;24.30;43.78;101098.72;5002542;28;20045;-58
2022/10/25 01:33:42;;;;;;;5.10;1.35;;;;;;;24.32;43.72;101097.00;4979447;28;20478;-57
2022/10/25 01:36:15;;;;;;;4.65;1.20;;;;;;;24.29;43.96;101092.63;5016990;28;20021;-58
2022/10/25 01:39:06;;;;;;;3.20;0.90;;;;;;;24.23;44.00;101088.19;5016951;28;20136;-57
2022/10/25 01:42:01;;;;;;;3.78;1.05;;;;;;;24.22;43.96;101090.75;5008831;28;20100;-58
2022/10/25 01:44:54;;;;;;;4.55;1.20;;;;;;;24.26;43.92;101082.09;5016535;28;20037;-58
2022/10/25 01:47:29;;;;;;;3.85;1.42;;;;;;;24.20;44.02;101087.22;4999688;28;20034;-57
2022/10/25 01:49:57;;;;;;;;;;;;;;;24.27;44.24;101083.84;4983564;28;20029;-55
2022/10/25 01:52:26;;;;;;;5.05;1.58;;;;;;;24.26;44.12;101084.72;5016603;28;20373;-57
2022/10/25 01:54:55;;;;;;;2.85;0.93;;;;;;;24.24;43.88;101083.81;5016381;28;20116;-57
2022/10/25 01:57:34;;;;;;;5.75;1.23;;;;;;;24.23;43.90;101088.19;4999022;28;20022;-56
2022/10/25 02:00:22;;;;;;;4.75;1.40;;;;;;;24.21;43.96;101091.63;5016536;28;20108;-54
2022/10/25 02:03:18;;;;;;;3.17;1.23;;;;;;;24.24;44.00;101086.44;5016493;28;20034;-54
2022/10/25 02:05:57;;;;;;;4.25;1.30;;;;;;;24.25;44.16;101088.19;4992646;28;20046;-57
2022/10/25 02:08:32;;;;;;;3.15;1.13;;;;;;;24.26;43.93;101074.22;4996851;28;20085;-55
2022/10/25 02:11:05;;;;;;;3.92;1.08;;;;;;;24.25;43.84;101086.44;4995814;28;20361;-54
2022/10/25 02:14:01;;;;;;;6.15;1.30;;;;;;;24.17;44.14;101080.22;4996548;28;20121;-55
2022/10/25 02:16:29;;;;;;;;;;;;;;;24.21;43.93;101078.50;4990928;28;20039;-53
2022/10/25 02:19:03;;;;;;;5.72;1.58;;;;;;;24.19;43.87;101072.38;4997139;28;19914;-57
2022/10/25 02:21:34;;;;;;;5.07;1.30;;;;;;;24.27;43.88;101078.63;4995891;28;20027;-57
2022/10/25 02:24:07;;;;;;;5.65;1.15;;;;;;;24.21;44.02;101073.28;4995592;28;20064;-57
2022/10/25 02:26:37;;;;;;;3.78;0.98;;;;;;;24.20;44.32;101069.78;4995540;28;20542;-56
2022/10/25 02:29:06;;;;;;;5.63;1.48;;;;;;;24.21;44.23;101066.31;4996700;28;20058;-57
2022/10/25 02:31:36;;;;;;;4.80;1.55;;;;;;;24.17;44.27;101068.84;4995166;28;20061;-57
2022/10/25 02:34:05;;;;;;;5.63;1.23;;;;;;;24.14;44.06;101060.97;4995404;28;20027;-57
2022/10/25 02:36:34;;;;;;;3.50;1.05;;;;;;;24.18;44.21;101066.25;4996595;28;20026;-58
2022/10/25 02:39:01;;;;;;;3.00;0.90;;;;;;;24.18;44.00;101068.88;4996137;28;20041;-57
2022/10/25 02:41:30;;;;;;;3.55;0.95;;;;;;;24.14;44.42;101055.72;4996221;28;20364;-58
2022/10/25 02:43:58;;;;;;;3.97;1.17;;;;;;;24.16;43.90;101059.25;4996143;28;20034;-56
2022/10/25 02:46:27;;;;;;;7.38;1.45;;;;;;;24.19;44.31;101070.63;4995964;28;20061;-55
2022/10/25 02:48:56;;;;;;;3.72;0.98;;;;;;;24.19;43.83;101067.13;4996218;28;20038;-55
2022/10/25 02:51:24;;;;;;;6.47;1.65;;;;;;;24.11;44.20;101057.44;4995977;28;20097;-56
2022/10/25 02:53:53;;;;;;;4.57;1.20;;;;;;;24.16;44.27;101064.47;4996227;28;20149;-57
2022/10/25 02:56:22;;;;;;;4.43;1.55;;;;;;;24.12;44.33;101058.28;4995442;28;20463;-56
2022/10/25 02:58:55;;;;;;;2.90;1.10;;;;;;;24.12;43.97;101061.81;4995510;28;20424;-58
2022/10/25 03:01:23;;;;;;;5.30;1.52;;;;;;;24.17;44.31;101060.97;4995706;28;20045;-57
2022/10/25 03:03:52;;;;;;;2.58;1.02;;;;;;;24.15;44.42;101057.47;4997235;28;20026;-57
2022/10/25 03:06:21;;;;;;;3.25;1.40;;;;;;;24.14;44.18;101055.72;5015243;28;20038;-58
2022/10/25 03:08:49;;;;;;;5.18;1.20;;;;;;;24.09;44.29;101047.75;4998131;28;20057;-58
2022/10/25 03:11:18;;;;;;;2.53;0.75;;;;;;;24.11;44.47;101051.28;4997968;28;20022;-57
2022/10/25 03:13:46;;;;;;;4.18;1.02;;;;;;;24.17;44.36;101045.25;5015128;28;20033;-57
2022/10/25 03:16:15;;;;;;;4.93;1.27;;;;;;;24.17;44.38;101053.13;5014928;28;20053;-58
2022/10/25 03:18:43;;;;;;;4.47;1.00;;;;;;;24.13;43.91;101046.97;5015100;28;20104;-57
2022/10/25 03:21:11;;;;;;;3.75;1.48;;;;;;;24.12;44.28;101047.81;5015134;28;20065;-58
2022/10/25 03:23:40;;;;;;;7.40;1.35;;;;;;;24.12;44.25;101043.47;5015272;28;20471;-58
2022/10/25 03:26:09;;;;;;;3.63;1.15;;;;;;;24.10;44.41;101046.91;5014988;28;20026;-58
2022/10/25 03:28:37;;;;;;;3.47;1.23;;;;;;;24.09;44.31;101042.53;5014643;28;20426;-57
2022/10/25 03:31:12;;;;;;;5.72;1.20;;;;;;;24.10;44.33;101039.03;5015148;28;20030;-57
2022/10/25 03:33:40;;;;;;;4.82;1.30;;;;;;;24.10;43.93;101045.19;5015035;28;20026;-58
2022/10/25 03:36:09;;;;;;;4.20;1.10;;;;;;;24.11;44.42;101046.06;5014429;28;20030;-58
2022/10/25 03:38:37;;;;;;;6.20;1.63;;;;;;;24.11;44.06;101039.09;5014495;28;20097;-58
2022/10/25 03:41:06;;;;;;;3.72;1.10;;;;;;;24.15;44.13;101042.63;5014640;28;20048;-58
2022/10/25 03:43:35;;;;;;;3.15;1.17;;;;;;;24.10;43.99;101042.56;4997124;28;20372;-57
2022/10/25 03:46:03;;;;;;;5.00;1.30;;;;;;;24.12;44.08;101045.19;4997588;28;20026;-58
2022/10/25 03:48:32;;;;;;;4.38;1.05;;;;;;;24.10;44.36;101039.94;5014859;28;20479;-56
2022/10/25 03:51:00;;;;;;;3.97;1.30;;;;;;;24.09;44.41;101037.28;5014617;28;20037;-56
2022/10/25 03:53:29;;;;;;;4.30;1.30;;;;;;;24.00;44.24;101013.59;5014430;28;20032;-57
2022/10/25 03:55:57;;;;;;;5.55;1.48;;;;;;;24.03;44.38;101024.97;5014227;28;20030;-57
2022/10/25 03:58:26;;;;;;;2.72;1.15;;;;;;;24.09;44.39;101027.69;5014087;28;20029;-57
2022/10/25 04:00:55;;;;;;;6.05;1.20;;;;;;;24.09;44.42;101029.41;5014103;28;20046;-57
2022/10/25 04:03:23;;;;;;;4.68;0.73;;;;;;;24.05;43.98;101023.28;5013869;28;20113;-57
2022/10/25 04:05:52;;;;;;;4.25;1.15;;;;;;;24.10;44.03;101032.09;5014191;28;20049;-57
2022/10/25 04:08:20;;;;;;;6.82;1.67;;;;;;;24.00;44.55;101022.31;5014120;28;20025;-57
2022/10/25 04:10:49;;;;;;;5.32;1.27;;;;;;;24.03;44.34;101024.13;5014239;28;20026;-54
2022/10/25 04:13:18;;;;;;;4.85;1.20;;;;;;;24.01;44.43;101024.06;5014407;28;20033;-57
2022/10/25 04:15:46;;;;;;;2.97;0.80;;;;;;;24.00;44.28;101019.69;5013972;28;20034;-56
2022/10/25 04:18:14;;;;;;;4.63;1.30;;;;;;;24.00;44.60;101021.44;5014007;28;20101;-57
2022/10/25 04:20:46;;;;;;;7.70;1.33;;;;;;;24.01;44.56;101015.34;4996423;28;20029;-56
2022/10/25 04:23:15;;;;;;;5.38;1.40;;;;;;;24.01;44.24;101013.59;5013963;28;20026;-58
2022/10/25 04:25:44;;;;;;;4.95;1.38;;;;;;;24.05;44.41;101015.41;5013960;28;20037;-57
2022/10/25 04:28:12;;;;;;;4.25;0.95;;;;;;;24.05;44.53;101015.41;5014010;28;20347;-57
2022/10/25 04:30:40;;;;;;;4.68;1.30;;;;;;;24.03;44.36;101016.25;5013445;28;20079;-57
2022/10/25 04:33:09;;;;;;;4.30;1.65;;;;;;;24.03;44.42;101014.50;5013427;28;20105;-58
2022/10/25 04:35:37;;;;;;;4.13;1.30;;;;;;;24.04;44.31;101007.53;5014089;28;20030;-57
2022/10/25 04:38:06;;;;;;;3.40;1.17;;;;;;;24.05;44.35;101004.06;5013633;28;20037;-56
2022/10/25 04:40:34;;;;;;;5.07;1.35;;;;;;;23.97;44.47;101007.44;5013622;28;20034;-57
2022/10/25 04:43:03;;;;;;;4.45;1.13;;;;;;;24.00;44.19;101014.44;5013639;28;20463;-58
2022/10/25 04:45:32;;;;;;;3.58;1.10;;;;;;;23.98;44.55;101005.72;5013455;28;20041;-57
2022/10/25 04:48:00;;;;;;;3.42;1.08;;;;;;;24.06;44.09;101011.06;5013433;28;20029;-57
2022/10/25 04:50:29;;;;;;;4.05;1.15;;;;;;;24.04;44.01;101000.53;5013536;28;20029;-57
2022/10/25 04:52:57;;;;;;;3.80;1.00;;;;;;;24.01;44.48;100997.88;5013572;28;20029;-57
2022/10/25 04:55:26;;;;;;;2.75;0.93;;;;;;;23.91;44.39;100980.25;5013420;28;20025;-56
2022/10/25 04:57:54;;;;;;;3.58;1.00;;;;;;;24.01;44.38;100991.75;5013432;28;20037;-58
2022/10/25 05:00:23;;;;;;;3.58;1.02;;;;;;;24.01;44.54;100990.00;5013519;28;20026;-56
2022/10/25 05:02:53;;;;;;;4.50;1.20;;;;;;;24.00;44.30;100987.38;5013493;28;20058;-54
2022/10/25 05:05:23;;;;;;;2.92;1.00;;;;;;;23.99;44.28;100993.47;4995855;28;20034;-56
2022/10/25 05:07:52;;;;;;;3.38;0.95;;;;;;;23.96;44.43;100989.06;5012765;28;20080;-57
2022/10/25 05:10:20;;;;;;;4.22;1.00;;;;;;;23.96;44.29;100984.72;5013014;28;20025;-57
2022/10/25 05:12:48;;;;;;;4.00;1.30;;;;;;;23.85;44.52;100977.53;5013215;28;20084;-57
2022/10/25 05:15:17;;;;;;;3.08;1.05;;;;;;;23.91;44.64;100990.72;5013083;28;20030;-57
2022/10/25 05:17:45;;;;;;;3.20;1.00;;;;;;;23.91;44.76;100983.72;5013097;28;20033;-55
2022/10/25 05:20:14;;;;;;;3.65;1.38;;;;;;;23.92;44.74;100988.13;5012736;28;20026;-57
2022/10/25 05:22:43;;;;;;;4.75;1.38;;;;;;;23.95;44.24;100987.28;5012828;28;20045;-57
2022/10/25 05:25:11;;;;;;;2.47;0.88;;;;;;;23.95;44.71;100988.16;5013027;28;20419;-56
2022/10/25 05:27:40;;;;;;;3.97;0.90;;;;;;;23.94;44.65;100982.91;4995492;28;20041;-57
2022/10/25 05:30:09;;;;;;;2.58;0.98;;;;;;;23.91;44.65;100972.38;5013013;28;20065;-58
2022/10/25 05:32:37;;;;;;;4.57;1.40;;;;;;;23.90;44.76;100981.09;5012705;28;20058;-56
2022/10/25 05:35:06;;;;;;;3.53;1.10;;;;;;;23.89;44.35;100976.72;5013131;28;20026;-57
2022/10/25 05:37:35;;;;;;;3.13;0.98;;;;;;;23.92;44.78;100974.16;5013141;28;20030;-57
2022/10/25 05:40:03;;;;;;;3.63;1.13;;;;;;;23.87;44.72;100967.97;5012727;28;20033;-57
2022/10/25 05:42:32;;;;;;;2.70;0.88;;;;;;;23.88;44.73;100969.72;5013105;28;20022;-57
2022/10/25 05:45:00;;;;;;;4.75;1.20;;;;;;;23.93;44.36;100975.91;5012730;28;20026;-58
2022/10/25 05:47:27;;;;;;;3.35;1.08;;;;;;;23.90;44.74;100963.66;5013031;28;20108;-58
2022/10/25 05:49:56;;;;;;;4.80;1.05;;;;;;;23.89;44.71;100961.00;5013030;28;20464;-56
2022/10/25 05:52:25;;;;;;;3.95;0.90;;;;;;;23.89;44.70;100953.16;5013075;28;20026;-57
2022/10/25 05:54:53;;;;;;;2.65;0.98;;;;;;;23.92;44.59;100953.19;4979082;28;20475;-56
2022/10/25 05:57:22;;;;;;;2.67;1.00;;;;;;;23.90;44.31;100952.28;5012972;28;20494;-56
2022/10/25 05:59:51;;;;;;;3.17;0.98;;;;;;;23.89;44.76;100951.41;5012979;28;20029;-55
2022/10/25 06:02:20;;;;;;;4.60;1.33;;;;;;;23.88;44.63;100944.41;5012848;28;20061;-56
2022/10/25 06:04:48;;;;;;;4.00;0.90;;;;;;;23.94;44.37;100943.63;5011952;28;20192;-55
2022/10/25 06:07:17;;;;;;;4.22;1.00;;;;;;;23.92;44.38;100942.72;5012415;28;20494;-56
2022/10/25 06:09:45;;;;;;;2.70;1.23;;;;;;;23.95;44.64;100946.25;4995289;28;20033;-54
2022/10/25 06:12:14;;;;;;;4.43;1.02;;;;;;;23.93;44.57;100945.34;5012714;28;20021;-56
2022/10/25 06:14:42;;;;;;;2.65;0.90;;;;;;;23.98;44.19;100942.84;5012852;28;20502;-56
2022/10/25 06:17:12;;;;;;;3.63;1.35;;;;;;;23.92;44.34;100945.31;5012853;28;20092;-56
2022/10/25 06:19:41;;;;;;;2.17;0.77;;;;;;;23.93;44.38;100947.09;4995661;28;20478;-56
2022/10/25 06:22:10;;;;;;;1.70;0.65;;;;;;;23.94;44.43;100943.63;5016259;28;20442;-57
2022/10/25 06:24:38;;;;;;;2.15;1.00;;;;;;;23.88;44.64;100933.03;5016014;28;20022;-57
2022/10/25 06:27:07;;;;;;;2.25;0.60;;;;;;;23.90;44.58;100939.19;5015937;28;20036;-56
2022/10/25 06:29:35;;;;;;;3.22;1.10;;;;;;;23.96;44.64;100940.19;5016353;28;20093;-56
2022/10/25 06:32:04;;;;;;;2.90;1.00;;;;;;;23.94;44.20;100944.47;5016178;28;20027;-56
2022/10/25 06:34:34;;;;;;;4.47;1.50;;;;;;;23.94;44.24;100944.47;5016289;28;20080;-56
2022/10/25 06:37:04;;;;;;;6.80;0.95;;;;;;;23.96;44.54;100941.91;5015931;28;20434;-57
2022/10/25 06:39:32;;;;;;;4.95;1.35;;;;;;;23.97;44.36;100941.94;5016137;28;20038;-57
2022/10/25 06:42:02;;;;;;;4.18;0.90;;;;;;;23.92;44.57;100935.72;4998463;28;20348;-54
2022/10/25 06:44:31;;;;;;;3.95;1.13;;;;;;;23.94;44.51;100936.63;5016091;28;20367;-57
2022/10/25 06:47:00;;;;;;;4.32;1.27;;;;;;;23.92;44.39;100934.84;5015780;28;20084;-56
2022/10/25 06:49:28;;;;;;;5.90;1.00;;;;;;;23.92;44.28;100937.47;5015675;28;20103;-57
2022/10/25 06:51:57;;;;;;;4.50;1.00;;;;;;;23.94;44.56;100941.84;5015646;28;20052;-56
2022/10/25 06:54:25;;;;;;;2.85;1.02;;;;;;;23.96;44.60;100937.56;5015593;28;20026;-57
2022/10/25 06:56:54;;;;;;;2.45;0.90;;;;;;;23.96;44.40;100939.28;4998345;28;20076;-57
2022/10/25 06:59:22;;;;;;;3.83;0.88;;;;;;;23.89;44.32;100934.81;5015437;28;20058;-57
2022/10/25 07:01:51;;;;;;;1.98;0.80;;;;;;;23.92;44.25;100930.47;5015388;28;20080;-56
2022/10/25 07:04:19;;;;;;;4.15;1.17;;;;;;;23.92;44.34;100934.84;5015275;28;20050;-57
2022/10/25 07:06:48;;;;;;;2.65;0.73;;;;;;;23.89;44.28;100929.56;5015348;28;20105;-53
2022/10/25 07:09:16;;;;;;;2.50;1.13;;;;;;;23.95;44.51;100935.75;5015555;28;20080;-57
2022/10/25 07:11:45;;;;;;;4.47;0.98;;;;;;;23.95;44.57;100932.28;5014950;28;20026;-57
2022/10/25 07:14:13;;;;;;;3.15;1.10;;;;;;;23.89;44.53;100930.47;5015258;28;20104;-55
2022/10/25 07:16:42;;;;;;;3.65;1.13;;;;;;;23.89;44.50;100930.47;5015313;28;20048;-57
2022/10/25 07:19:10;;;;;;;5.13;1.10;;;;;;;23.93;44.38;100928.75;5015498;28;20034;-58
2022/10/25 07:21:39;;;;;;;3.33;0.77;;;;;;;23.98;44.29;100932.34;5015319;28;20057;-57
2022/10/25 07:24:10;;;;;;;3.92;1.20;;;;;;;24.00;44.37;100924.50;5015123;28;20033;-57
2022/10/25 07:26:39;;;;;;;4.13;0.80;;;;;;;23.97;44.49;100920.97;5015450;28;20037;-58
2022/10/25 07:29:07;;;;;;;4.43;0.95;;;;;;;23.99;44.40;100931.50;5015123;28;20084;-56
2022/10/25 07:31:40;;;;;;;6.32;1.30;;;;;;;24.00;44.25;100927.97;5013726;28;20092;-58
2022/10/25 07:34:09;;;;;;;4.13;1.00;;;;;;;23.97;44.09;100928.84;5014759;28;20030;-56
2022/10/25 07:36:37;;;;;;;2.58;0.60;;;;;;;24.00;44.25;100927.97;5015197;28;20030;-58
2022/10/25 07:39:06;;;;;;;2.88;1.13;;;;;;;23.98;44.41;100929.72;5014933;28;20034;-58
2022/10/25 07:41:35;;;;;;;4.07;0.95;;;;;;;24.00;44.11;100924.50;5014897;28;20033;-58
2022/10/25 07:44:03;;;;;;;2.05;0.80;;;;;;;24.04;44.06;100921.06;5014638;28;20030;-59
2022/10/25 07:46:32;;;;;;;2.78;0.80;;;;;;;24.00;44.27;100927.97;5014502;28;20487;-58
2022/10/25 07:49:00;;;;;;;3.95;1.25;;;;;;;23.95;44.47;100921.78;5014552;28;20026;-58
2022/10/25 07:51:28;;;;;;;3.38;0.90;;;;;;;24.01;44.32;100924.50;5014747;28;20533;-58
2022/10/25 07:53:57;;;;;;;3.92;1.08;;;;;;;24.01;44.38;100923.63;5014573;28;20034;-57
2022/10/25 07:56:26;;;;;;;3.65;1.05;;;;;;;23.95;44.26;100917.41;5014792;28;20034;-54
2022/10/25 07:58:55;;;;;;;3.25;1.10;;;;;;;24.08;44.25;100930.69;5014865;28;20021;-55
2022/10/25 08:01:26;;;;;;;2.65;0.68;;;;;;;24.08;44.32;100925.44;5014668;28;20096;-58
2022/10/25 08:03:55;;;;;;;5.25;1.05;;;;;;;24.03;44.43;100933.25;5014107;28;20028;-53
2022/10/25 08:06:24;;;;;;;3.25;0.85;;;;;;;24.03;44.13;100929.78;4997317;28;20033;-54
2022/10/25 08:08:53;;;;;;;3.33;0.85;;;;;;;24.05;44.15;100928.06;5014521;28;20021;-54
2022/10/25 08:11:22;;;;;;;3.85;1.13;;;;;;;24.06;44.33;100925.44;4996787;28;20384;-55
2022/10/25 08:13:51;;;;;;;2.75;0.80;;;;;;;24.01;44.48;100921.88;4996644;28;20084;-57
2022/10/25 08:16:19;;;;;;;2.22;0.93;;;;;;;24.12;43.95;100922.00;5013914;28;20018;-57
2022/10/25 08:18:48;;;;;;;3.50;1.02;;;;;;;24.11;44.20;100928.13;5013770;28;20092;-57
2022/10/25 08:21:16;;;;;;;2.40;1.15;;;;;;;24.07;44.13;100918.47;5013918;28;20057;-56
2022/10/25 08:23:45;;;;;;;3.10;0.90;;;;;;;24.07;44.22;100915.84;5014190;28;20026;-58
2022/10/25 08:26:13;;;;;;;2.85;0.73;;;;;;;24.12;44.16;100909.81;5014099;28;20030;-57
2022/10/25 08:28:42;;;;;;;5.50;1.05;;;;;;;24.14;43.95;100899.31;4996437;28;20022;-58
2022/10/25 08:31:11;;;;;;;4.15;0.95;;;;;;;24.07;44.31;100908.88;5013443;28;20463;-57
2022/10/25 08:33:39;;;;;;;5.45;0.85;;;;;;;24.09;44.44;100901.91;5013416;28;20096;-58
2022/10/25 08:36:08;;;;;;;6.13;1.70;;;;;;;24.14;44.16;100899.31;5013791;28;20025;-57
2022/10/25 08:38:37;;;;;;;2.95;1.02;;;;;;;24.06;44.32;100895.75;4996258;28;20541;-58
2022/10/25 08:41:17;;;;;;;4.03;1.05;;;;;;;24.15;44.04;100889.75;5013261;28;20129;-56
2022/10/25 08:43:56;;;;;;;4.70;1.30;;;;;;;24.08;44.41;100894.91;5013039;28;20084;-57
2022/10/25 08:46:31;;;;;;;4.15;1.10;;;;;;;24.15;44.31;100889.75;5013099;28;20435;-55
2022/10/25 08:49:18;;;;;;;3.20;1.27;;;;;;;24.10;44.23;100892.28;5013612;28;20442;-57
2022/10/25 08:51:49;;;;;;;4.05;1.15;;;;;;;24.11;44.24;100879.22;5013436;28;20372;-57
2022/10/25 08:54:30;;;;;;;3.80;0.85;;;;;;;24.07;44.32;100892.28;5013483;28;20037;-57
2022/10/25 08:57:07;;;;;;;4.35;1.10;;;;;;;24.06;44.52;100882.66;5013440;28;20092;-55
2022/10/25 08:59:39;;;;;;;4.90;1.20;;;;;;;24.02;44.17;100870.38;5013112;28;20030;-57
2022/10/25 09:02:18;;;;;;;3.05;1.15;;;;;;;24.06;44.72;100880.91;5013436;28;20034;-57
2022/10/25 09:04:46;;;;;;;6.30;1.67;;;;;;;24.11;44.48;100879.22;4979466;28;20046;-56
2022/10/25 09:07:32;;;;;;;2.83;0.98;;;;;;;24.04;44.17;100866.03;4995756;28;20173;-58
2022/10/25 09:10:11;;;;;;;6.05;1.23;;;;;;;24.14;44.24;100874.88;5013679;28;20029;-58
2022/10/25 09:12:49;;;;;;;4.43;1.15;;;;;;;24.16;44.01;100865.28;5013070;28;20022;-58
2022/10/25 09:15:40;;;;;;;5.53;1.40;;;;;;;24.07;44.31;100856.44;5013232;28;20022;-55
2022/10/25 09:18:16;;;;;;;2.85;1.02;;;;;;;24.15;44.66;100860.91;4990206;28;20037;-57
2022/10/25 09:20:53;;;;;;;3.72;1.00;;;;;;;24.12;44.49;100854.78;5013276;28;20076;-57
2022/10/25 09:23:31;;;;;;;3.25;1.08;;;;;;;24.17;44.44;100854.81;4995786;28;20033;-58
2022/10/25 09:26:08;;;;;;;4.63;0.98;;;;;;;24.14;44.44;100844.28;5013460;28;20410;-58
2022/10/25 09:28:51;;;;;;;2.28;0.82;;;;;;;24.08;44.57;100842.50;5012934;28;20033;-57
2022/10/25 09:31:24;;;;;;;4.55;0.98;;;;;;;24.16;44.63;100849.56;5012848;28;20030;-56
2022/10/25 09:34:04;;;;;;;5.35;1.42;;;;;;;24.10;44.73;100845.09;4995859;28;20022;-57
2022/10/25 09:36:57;;;;;;;5.55;1.20;;;;;;;24.25;44.51;100833.91;4995943;28;20049;-50
2022/10/25 09:39:35;;;;;;;4.10;1.20;;;;;;;24.18;44.75;100832.09;5004947;28;20467;-58
2022/10/25 09:42:06;;;;;;;2.88;0.90;;;;;;;24.23;44.28;100835.63;4995307;28;20041;-56
2022/10/25 09:44:36;;;;;;;2.78;0.70;;;;;;;24.15;44.49;100837.31;4995597;28;20467;-58
2022/10/25 09:47:21;;;;;;;4.13;1.02;;;;;;;24.19;44.36;100828.59;4979410;28;20030;-58
2022/10/25 09:49:49;;;;;;;;;;;;;;;24.26;44.35;100817.31;5013760;28;20053;-58
2022/10/25 09:52:35;;;;;;;4.82;1.55;;;;;;;24.22;44.62;100826.91;5012676;28;19917;-58
2022/10/25 09:55:08;;;;;;;4.60;1.30;;;;;;;24.21;44.64;100816.41;5013926;28;20404;-58
2022/10/25 09:57:37;;;;;;;5.85;1.35;;;;;;;24.18;44.72;100804.16;5016731;28;20041;-54
2022/10/25 10:00:05;;;;;;;4.70;1.30;;;;;;;24.17;44.81;100810.25;4999133;28;20105;-56
2022/10/25 10:02:35;;;;;;;7.25;1.77;;;;;;;24.12;44.56;100796.22;5016634;28;20053;-55
2022/10/25 10:05:03;;;;;;;3.67;1.13;;;;;;;24.18;44.70;100803.25;5016182;28;20065;-54
2022/10/25 10:07:37;;;;;;;3.75;1.00;;;;;;;24.22;44.36;100797.19;5015090;28;20030;-56
2022/10/25 10:10:09;;;;;;;3.63;0.98;;;;;;;24.20;44.40;100785.81;5014665;28;20033;-56
2022/10/25 10:13:06;;;;;;;3.83;1.30;;;;;;;24.25;44.75;100784.97;5015110;28;20025;-57
2022/10/25 10:15:41;;;;;;;4.60;1.15;;;;;;;24.26;44.73;100778.00;5004905;28;20403;-57
2022/10/25 10:18:28;;;;;;;4.50;1.30;;;;;;;24.32;44.34;100780.69;4998089;28;20030;-56
2022/10/25 10:21:03;;;;;;;6.18;1.33;;;;;;;24.27;44.74;100770.16;5015212;28;20121;-56
2022/10/25 10:23:36;;;;;;;4.15;1.00;;;;;;;24.26;44.61;100775.38;4997558;28;20117;-56
2022/10/25 10:26:30;;;;;;;3.05;0.80;;;;;;;24.25;44.77;100766.63;5015147;28;20466;-57
2022/10/25 10:29:08;;;;;;;4.45;1.15;;;;;;;24.22;44.87;100766.63;4997599;28;20450;-57
2022/10/25 10:31:40;;;;;;;5.32;1.00;;;;;;;24.25;44.53;100765.75;5015071;28;20061;-57
2022/10/25 10:34:31;;;;;;;3.30;0.93;;;;;;;24.22;45.00;100760.50;5015313;28;20034;-57
2022/10/25 10:37:22;;;;;;;5.70;1.58;;;;;;;24.28;44.64;100757.94;5015041;28;20096;-56
2022/10/25 10:39:55;;;;;;;4.43;1.05;;;;;;;24.32;44.62;100762.34;5014687;28;20132;-57
2022/10/25 10:42:31;;;;;;;4.20;1.23;;;;;;;24.36;44.76;100755.38;5014800;28;20038;-59
2022/10/25 10:45:08;;;;;;;3.17;0.88;;;;;;;24.26;45.17;100741.31;5014693;28;20030;-57
2022/10/25 10:47:43;;;;;;;4.63;1.00;;;;;;;24.27;44.74;100743.06;5014545;28;20037;-57
2022/10/25 10:50:25;;;;;;;5.63;1.55;;;;;;;24.30;44.68;100750.97;5014523;28;20036;-57
2022/10/25 10:52:59;;;;;;;4.40;1.40;;;;;;;24.19;44.54;100731.63;4996920;28;20064;-58
2022/10/25 10:55:31;;;;;;;4.90;1.40;;;;;;;24.27;44.63;100737.81;5014173;28;20033;-58
2022/10/25 10:58:20;;;;;;;4.80;1.52;;;;;;;24.28;44.70;100729.97;5014234;28;20026;-57
2022/10/25 11:00:51;;;;;;;5.32;1.33;;;;;;;24.28;44.80;100729.09;4962846;28;20042;-58
2022/10/25 11:03:39;;;;;;;6.82;1.10;;;;;;;24.25;44.82;100724.69;5014559;28;20022;-57
2022/10/25 11:06:27;;;;;;;4.30;0.98;;;;;;;24.31;44.76;100728.22;4883079;28;3127555;-58
2022/10/25 11:09:16;;;;;;;5.38;1.10;;;;;;;24.30;45.15;100722.13;4996026;28;20487;-54
2022/10/25 11:11:45;;;;;;;4.57;1.00;;;;;;;24.42;44.71;100718.69;4991489;28;20030;-57
2022/10/25 11:14:15;;;;;;;7.72;1.80;;;;;;;24.32;45.34;100714.25;4978409;28;20117;-55
2022/10/25 11:17:05;;;;;;;7.70;2.17;;;;;;;24.36;44.73;100708.19;4996031;28;20065;-57
2022/10/25 11:19:49;;;;;;;7.30;1.33;;;;;;;24.39;44.71;100698.59;4989804;28;20046;-52
2022/10/25 11:22:26;;;;;;;5.13;1.65;;;;;;;24.36;45.13;100705.56;4995824;28;20428;-56
2022/10/25 11:25:05;;;;;;;4.13;1.10;;;;;;;24.32;45.31;100696.81;4995592;28;20121;-57
2022/10/25 11:27:53;;;;;;;7.50;1.55;;;;;;;24.34;45.31;100688.94;4994374;28;20080;-58
2022/10/25 11:30:23;;;;;;;4.80;1.42;;;;;;;24.33;45.04;100689.81;4989005;28;20045;-58
2022/10/25 11:33:29;;;;;;;4.25;1.15;;;;;;;24.32;45.06;100686.31;4994349;28;20098;-58
2022/10/25 11:36:15;;;;;;;4.18;1.35;;;;;;;24.30;45.18;100676.66;4991149;28;20058;-56
2022/10/25 11:39:21;;;;;;;4.45;1.10;;;;;;;24.34;45.14;100678.47;4995201;28;20507;-57
2022/10/25 11:41:53;;;;;;;5.28;1.35;;;;;;;24.41;45.29;100673.25;4984139;28;20038;-57
2022/10/25 11:44:44;;;;;;;7.95;1.50;;;;;;;24.36;45.30;100667.09;4995471;28;20058;-58
2022/10/25 11:47:38;;;;;;;7.13;2.00;;;;;;;24.30;45.43;100672.31;4995065;28;20027;-58
2022/10/25 11:50:31;;;;;;;5.85;1.67;;;;;;;24.33;45.52;100663.59;4994256;28;20034;-57
2022/10/25 11:53:20;;;;;;;4.22;1.20;;;;;;;24.36;45.29;100661.84;4987182;28;20060;-58